createdAt,value
2022-09-23T00:04:30.197Z,13.7
2022-09-23T00:09:30.248Z,13.5
2022-09-23T00:14:30.195Z,13.5
2022-09-23T00:19:30.247Z,10.7
2022-09-23T00:24:30.202Z,13.3
2022-09-23T00:29:30.275Z,13.1
2022-09-23T00:34:30.280Z,13.4
2022-09-23T00:39:30.255Z,12.8
2022-09-23T00:44:30.219Z,12.8
2022-09-23T00:49:30.209Z,19.0
2022-09-23T00:54:30.218Z,16.7
2022-09-23T00:59:30.178Z,16.2
2022-09-23T01:04:30.221Z,10.6
2022-09-23T01:09:30.221Z,13.1
2022-09-23T01:14:30.225Z,13.1
2022-09-23T01:19:30.187Z,17.4
2022-09-23T01:24:30.223Z,16.9
2022-09-23T01:29:30.222Z,17.6
2022-09-23T01:34:30.217Z,21.5
2022-09-23T01:39:30.191Z,24.8
2022-09-23T01:44:30.230Z,24.8
2022-09-23T01:49:30.278Z,24.8
2022-09-23T01:54:30.231Z,24.1
2022-09-23T01:59:30.321Z,26.6
2022-09-23T02:04:30.190Z,20.8
2022-09-23T02:09:30.240Z,26.8
2022-09-23T02:14:30.233Z,26.8
2022-09-23T02:19:30.255Z,19.6
2022-09-23T02:24:30.244Z,27.2
2022-09-23T02:29:30.239Z,24.8
2022-09-23T02:34:30.245Z,28.5
2022-09-23T02:39:30.253Z,28.7
2022-09-23T02:44:30.243Z,28.7
2022-09-23T02:49:30.256Z,24.4
2022-09-23T02:54:30.253Z,23.2
2022-09-23T02:59:30.333Z,19.8
2022-09-23T03:04:30.262Z,19.0
2022-09-23T03:09:30.216Z,17.6
2022-09-23T03:14:30.253Z,17.6
2022-09-23T03:19:30.242Z,16.3
2022-09-23T03:24:30.276Z,18.3
2022-09-23T03:29:30.231Z,18.0
2022-09-23T03:34:30.348Z,15.4
2022-09-23T03:39:30.284Z,14.9
2022-09-23T03:44:30.243Z,14.9
2022-09-23T03:49:30.356Z,16.0
2022-09-23T03:54:30.311Z,14.1
2022-09-23T03:59:30.253Z,13.8
2022-09-23T04:04:30.284Z,11.7
2022-09-23T04:09:30.282Z,11.0
2022-09-23T04:14:30.283Z,11.0
2022-09-23T04:19:30.291Z,9.0
2022-09-23T04:24:30.293Z,13.7
2022-09-23T04:29:30.295Z,10.6
2022-09-23T04:34:30.269Z,8.4
2022-09-23T04:39:30.294Z,7.4
2022-09-23T04:44:30.295Z,7.4
2022-09-23T04:49:30.306Z,8.4
2022-09-23T04:54:30.309Z,8.1
2022-09-23T04:59:30.277Z,9.7
2022-09-23T05:04:30.277Z,16.2
2022-09-23T05:09:30.309Z,12.1
2022-09-23T05:14:30.295Z,12.1
2022-09-23T05:19:30.316Z,12.8
2022-09-23T05:24:30.279Z,12.0
2022-09-23T05:29:30.367Z,9.6
2022-09-23T05:34:30.324Z,8.9
2022-09-23T05:39:30.333Z,8.3
2022-09-23T05:44:30.293Z,8.3
2022-09-23T05:49:55.196Z,7.3
2022-09-23T05:54:30.333Z,8.7
2022-09-23T05:59:30.296Z,8.5
2022-09-23T06:04:30.331Z,8.7
2022-09-23T06:09:35.635Z,6.5
2022-09-23T06:14:30.338Z,6.5
2022-09-23T06:19:30.301Z,7.9
2022-09-23T06:24:31.593Z,6.1
2022-09-23T06:29:30.315Z,7.8
2022-09-23T06:34:34.503Z,7.8
2022-09-23T06:39:30.336Z,7.4
2022-09-23T06:44:30.341Z,7.4
2022-09-23T06:49:30.319Z,8.8
2022-09-23T06:54:30.349Z,9.9
2022-09-23T06:59:30.324Z,8.8
2022-09-23T07:04:30.360Z,8.4
2022-09-23T07:09:30.363Z,8.9
2022-09-23T07:14:30.442Z,8.9
2022-09-23T07:19:30.332Z,9.9
2022-09-23T07:24:30.362Z,9.6
2022-09-23T07:29:38.275Z,9.3
2022-09-23T07:34:30.376Z,11.3
2022-09-23T07:39:30.329Z,11.5
2022-09-23T07:44:30.382Z,11.5
2022-09-23T07:49:30.380Z,8.9
2022-09-23T07:54:30.354Z,9.3
2022-09-23T07:59:30.382Z,7.6
2022-09-23T08:04:30.457Z,12.2
2022-09-23T08:09:30.404Z,10.5
2022-09-23T08:14:30.400Z,10.5
2022-09-23T08:19:30.361Z,10.6
2022-09-23T08:24:30.401Z,9.2
2022-09-23T08:29:30.469Z,10.9
2022-09-23T08:34:30.362Z,9.6
2022-09-23T08:39:30.411Z,6.4
2022-09-23T08:44:30.407Z,6.4
2022-09-23T08:49:30.412Z,9.2
2022-09-23T08:54:30.369Z,7.1
2022-09-23T08:59:30.416Z,9.8
2022-09-23T09:04:30.417Z,6.7
2022-09-23T09:09:30.379Z,7.6
2022-09-23T09:14:30.422Z,7.6
2022-09-23T09:19:30.384Z,10.8
2022-09-23T09:24:30.419Z,6.9
2022-09-23T09:29:35.289Z,4.6
2022-09-23T09:34:30.418Z,7.5
2022-09-23T09:39:30.418Z,11.0
2022-09-23T09:44:30.415Z,11.0
2022-09-23T09:49:30.419Z,8.9
2022-09-23T09:54:30.333Z,7.8
2022-09-23T09:59:30.361Z,6.2
2022-09-23T10:04:30.502Z,7.5
2022-09-23T10:09:30.369Z,8.1
2022-09-23T10:14:30.366Z,8.1
2022-09-23T10:19:30.334Z,9.2
2022-09-23T10:24:30.360Z,6.3
2022-09-23T10:29:30.482Z,8.3
2022-09-23T10:34:30.455Z,8.4
2022-09-23T10:39:30.333Z,5.4
2022-09-23T10:44:30.382Z,5.4
2022-09-23T10:49:30.337Z,7.1
2022-09-23T10:54:30.379Z,9.8
2022-09-23T10:59:30.349Z,4.6
2022-09-23T11:04:30.425Z,6.9
2022-09-23T11:09:30.391Z,4.4
2022-09-23T11:14:30.398Z,4.4
2022-09-23T11:19:30.458Z,5.0
2022-09-23T11:24:30.365Z,4.8
2022-09-23T11:29:30.382Z,4.6
2022-09-23T11:34:30.410Z,4.0
2022-09-23T11:39:30.353Z,5.9
2022-09-23T11:44:30.353Z,5.9
2022-09-23T11:49:30.358Z,6.4
2022-09-23T11:54:30.463Z,3.5
2022-09-23T11:59:38.808Z,4.4
2022-09-23T12:04:30.744Z,4.6
2022-09-23T12:09:53.969Z,5.3
2022-09-23T12:14:30.367Z,5.3
2022-09-23T12:19:30.222Z,3.7
2022-09-23T12:24:30.366Z,4.6
2022-09-23T12:29:30.378Z,2.3
2022-09-23T12:34:30.404Z,2.3
2022-09-23T12:39:30.372Z,2.8
2022-09-23T12:44:30.402Z,2.8
2022-09-23T12:49:30.370Z,2.8
2022-09-23T12:54:30.376Z,2.6
2022-09-23T12:59:30.365Z,3.6
2022-09-23T13:04:30.377Z,3.4
2022-09-23T13:09:30.383Z,3.3
2022-09-23T13:14:30.383Z,3.3
2022-09-23T13:19:30.266Z,2.4
2022-09-23T13:24:30.378Z,4.1
2022-09-23T13:29:30.229Z,3.6
2022-09-23T13:34:30.274Z,4.2
2022-09-23T13:39:30.377Z,2.6
2022-09-23T13:44:30.374Z,2.6
2022-09-23T13:49:30.440Z,4.1
2022-09-23T13:54:30.434Z,2.7
2022-09-23T13:59:30.252Z,2.4
2022-09-23T14:04:30.483Z,1.8
2022-09-23T14:19:30.258Z,3.3
2022-09-23T14:24:30.258Z,4.6
2022-09-23T14:29:30.261Z,4.3
2022-09-23T14:34:30.264Z,4.8
2022-09-23T14:39:30.266Z,7.9
2022-09-23T14:44:30.411Z,7.9
2022-09-23T14:49:30.407Z,10.0
2022-09-23T14:54:30.278Z,4.4
2022-09-23T14:59:30.273Z,5.3
2022-09-23T15:04:30.420Z,8.4
2022-09-23T15:09:30.194Z,3.6
2022-09-23T15:14:37.787Z,3.6
2022-09-23T15:19:30.421Z,6.3
2022-09-23T15:24:30.274Z,6.9
2022-09-23T15:29:30.280Z,4.3
2022-09-23T15:34:30.507Z,9.1
2022-09-23T15:39:35.986Z,5.8
2022-09-23T15:44:30.282Z,5.8
2022-09-23T15:49:30.423Z,5.3
2022-09-23T15:54:30.280Z,6.5
2022-09-23T15:59:30.423Z,3.5
2022-09-23T16:04:30.428Z,4.1
2022-09-23T16:09:30.282Z,3.7
2022-09-23T16:14:30.453Z,3.7
2022-09-23T16:19:30.432Z,9.3
2022-09-23T16:24:30.543Z,7.0
2022-09-23T16:29:30.447Z,7.9
2022-09-23T16:34:30.292Z,4.8
2022-09-23T16:39:30.450Z,6.0
2022-09-23T16:44:30.462Z,6.0
2022-09-23T16:49:30.459Z,3.7
2022-09-23T16:54:30.469Z,6.9
2022-09-23T16:59:30.458Z,4.4
2022-09-23T17:04:30.473Z,2.9
2022-09-23T17:09:30.316Z,4.7
2022-09-23T17:14:30.462Z,4.7
2022-09-23T17:19:30.307Z,4.8
2022-09-23T17:24:30.311Z,5.7
2022-09-23T17:29:30.470Z,3.2
2022-09-23T17:34:30.464Z,5.4
2022-09-23T17:39:30.311Z,9.0
2022-09-23T17:44:30.319Z,9.0
2022-09-23T17:49:30.320Z,5.1
2022-09-23T17:54:30.562Z,5.1
2022-09-23T17:59:30.317Z,5.4
2022-09-23T18:04:30.326Z,5.7
2022-09-23T18:09:30.322Z,3.7
2022-09-23T18:14:30.320Z,3.7
2022-09-23T18:19:30.333Z,7.1
2022-09-23T18:24:32.832Z,5.5
2022-09-23T18:29:30.481Z,5.8
2022-09-23T18:34:30.324Z,3.7
2022-09-23T18:39:30.324Z,11.3
2022-09-23T18:44:30.324Z,11.3
2022-09-23T18:49:30.327Z,10.1
2022-09-23T18:54:30.483Z,10.4
2022-09-23T18:59:30.346Z,9.6
2022-09-23T19:04:30.332Z,7.4
2022-09-23T19:09:30.336Z,7.4
2022-09-23T19:14:30.341Z,7.4
2022-09-23T19:19:30.338Z,8.0
2022-09-23T19:24:30.340Z,11.5
2022-09-23T19:29:30.343Z,11.5
2022-09-23T19:34:30.341Z,15.7
2022-09-23T19:39:30.503Z,15.7
2022-09-23T19:44:30.375Z,13.8
2022-09-23T19:49:30.346Z,10.9
2022-09-23T19:54:30.366Z,9.2
2022-09-23T19:59:30.375Z,11.3
2022-09-23T20:04:30.357Z,11.2
2022-09-23T20:09:30.357Z,11.2
2022-09-23T20:14:30.359Z,10.2
2022-09-23T20:19:30.372Z,7.0
2022-09-23T20:24:30.366Z,8.1
2022-09-23T20:29:30.392Z,8.1
2022-09-23T20:34:30.230Z,12.2
2022-09-23T20:39:30.366Z,12.2
2022-09-23T20:44:30.284Z,6.8
2022-09-23T20:49:30.277Z,5.7
2022-09-23T20:54:30.403Z,7.5
2022-09-23T20:59:30.282Z,8.4
2022-09-23T21:04:30.382Z,7.2
2022-09-23T21:09:30.294Z,7.2
2022-09-23T21:14:30.412Z,7.0
2022-09-23T21:19:30.384Z,6.0
2022-09-23T21:25:16.010Z,4.8
2022-09-23T21:29:30.297Z,5.3
2022-09-23T21:34:30.311Z,5.6
2022-09-23T21:39:30.289Z,5.6
2022-09-23T21:44:30.306Z,4.8
2022-09-23T21:49:30.304Z,4.9
2022-09-23T21:54:30.314Z,4.2
2022-09-23T21:59:30.303Z,6.9
2022-09-23T22:04:30.380Z,4.4
2022-09-23T22:09:30.283Z,4.4
2022-09-23T22:14:30.313Z,3.3
2022-09-23T22:19:30.311Z,2.8
2022-09-23T22:24:30.313Z,3.4
2022-09-23T22:29:30.315Z,5.6
2022-09-23T22:34:49.232Z,6.5
2022-09-23T22:39:30.305Z,6.5
2022-09-23T22:44:30.312Z,6.1
2022-09-23T22:49:30.453Z,6.6
2022-09-23T22:54:33.999Z,12.4
2022-09-23T22:59:30.323Z,9.0
2022-09-23T23:04:30.320Z,4.9
2022-09-23T23:09:30.331Z,4.9
2022-09-23T23:14:30.317Z,5.3
2022-09-23T23:19:30.318Z,6.5
2022-09-23T23:24:30.352Z,4.2
2022-09-23T23:29:30.328Z,4.5
2022-09-23T23:34:30.331Z,4.8
2022-09-23T23:39:30.319Z,4.8
2022-09-23T23:44:30.330Z,2.7
2022-09-23T23:49:30.352Z,3.8
2022-09-23T23:54:30.342Z,5.1
2022-09-23T23:59:30.326Z,4.5
